sensor_id;sensor_type;location;lat;lon;timestamp;P1;durP1;ratioP1;P2;durP2;ratioP2
10653;SDS011;5375;51.250;6.776;2023-03-01T00:01:52;6.57;;;4.00;;
10653;SDS011;5375;51.250;6.776;2023-03-01T00:04:18;6.20;;;3.87;;
10653;SDS011;5375;51.250;6.776;2023-03-01T00:06:44;6.03;;;3.73;;
10653;SDS011;5375;51.250;6.776;2023-03-01T00:09:14;6.27;;;3.80;;
10653;SDS011;5375;51.250;6.776;2023-03-01T00:11:40;6.27;;;3.63;;
10653;SDS011;5375;51.250;6.776;2023-03-01T00:14:06;5.40;;;3.50;;
10653;SDS011;5375;51.250;6.776;2023-03-01T00:16:33;6.77;;;3.80;;
10653;SDS011;5375;51.250;6.776;2023-03-01T00:19:01;5.50;;;3.90;;
10653;SDS011;5375;51.250;6.776;2023-03-01T00:21:27;10.07;;;4.13;;
10653;SDS011;5375;51.250;6.776;2023-03-01T00:23:54;4.93;;;3.80;;
10653;SDS011;5375;51.250;6.776;2023-03-01T00:26:20;8.43;;;3.90;;
10653;SDS011;5375;51.250;6.776;2023-03-01T00:28:47;6.07;;;3.33;;
10653;SDS011;5375;51.250;6.776;2023-03-01T00:31:16;5.80;;;3.70;;
10653;SDS011;5375;51.250;6.776;2023-03-01T00:33:44;7.73;;;3.77;;
10653;SDS011;5375;51.250;6.776;2023-03-01T00:36:11;7.40;;;3.50;;
10653;SDS011;5375;51.250;6.776;2023-03-01T00:38:39;6.07;;;3.67;;
10653;SDS011;5375;51.250;6.776;2023-03-01T00:41:07;6.37;;;3.53;;
10653;SDS011;5375;51.250;6.776;2023-03-01T00:43:34;6.13;;;3.57;;
10653;SDS011;5375;51.250;6.776;2023-03-01T00:46:15;4.70;;;3.10;;
10653;SDS011;5375;51.250;6.776;2023-03-01T00:48:43;4.73;;;3.23;;
10653;SDS011;5375;51.250;6.776;2023-03-01T00:51:10;7.00;;;4.10;;
10653;SDS011;5375;51.250;6.776;2023-03-01T00:53:41;5.23;;;3.40;;
10653;SDS011;5375;51.250;6.776;2023-03-01T00:56:07;5.47;;;3.47;;
10653;SDS011;5375;51.250;6.776;2023-03-01T00:58:35;4.73;;;3.23;;
10653;SDS011;5375;51.250;6.776;2023-03-01T01:01:07;4.73;;;3.17;;
10653;SDS011;5375;51.250;6.776;2023-03-01T01:04:04;5.53;;;3.50;;
10653;SDS011;5375;51.250;6.776;2023-03-01T01:06:34;6.70;;;3.43;;
10653;SDS011;5375;51.250;6.776;2023-03-01T01:09:08;4.27;;;3.10;;
10653;SDS011;5375;51.250;6.776;2023-03-01T01:11:42;6.10;;;3.10;;
10653;SDS011;5375;51.250;6.776;2023-03-01T01:14:13;4.37;;;3.10;;
10653;SDS011;5375;51.250;6.776;2023-03-01T01:16:39;7.53;;;3.73;;
10653;SDS011;5375;51.250;6.776;2023-03-01T01:19:05;6.43;;;3.30;;
10653;SDS011;5375;51.250;6.776;2023-03-01T01:21:31;4.93;;;3.30;;
10653;SDS011;5375;51.250;6.776;2023-03-01T01:23:57;6.27;;;3.67;;
10653;SDS011;5375;51.250;6.776;2023-03-01T01:26:24;5.60;;;3.40;;
10653;SDS011;5375;51.250;6.776;2023-03-01T01:28:52;4.47;;;2.90;;
10653;SDS011;5375;51.250;6.776;2023-03-01T01:31:19;4.80;;;3.20;;
10653;SDS011;5375;51.250;6.776;2023-03-01T01:33:45;4.77;;;3.23;;
10653;SDS011;5375;51.250;6.776;2023-03-01T01:36:11;5.60;;;3.40;;
10653;SDS011;5375;51.250;6.776;2023-03-01T01:38:37;6.07;;;3.07;;
10653;SDS011;5375;51.250;6.776;2023-03-01T01:41:04;3.57;;;2.67;;
10653;SDS011;5375;51.250;6.776;2023-03-01T01:43:33;4.30;;;3.17;;
10653;SDS011;5375;51.250;6.776;2023-03-01T01:46:10;5.70;;;3.27;;
10653;SDS011;5375;51.250;6.776;2023-03-01T01:48:44;3.70;;;2.73;;
10653;SDS011;5375;51.250;6.776;2023-03-01T01:51:13;4.77;;;3.37;;
10653;SDS011;5375;51.250;6.776;2023-03-01T01:53:44;4.60;;;3.13;;
10653;SDS011;5375;51.250;6.776;2023-03-01T01:56:14;4.80;;;3.37;;
10653;SDS011;5375;51.250;6.776;2023-03-01T01:58:41;5.97;;;3.20;;
10653;SDS011;5375;51.250;6.776;2023-03-01T02:01:08;6.57;;;3.03;;
10653;SDS011;5375;51.250;6.776;2023-03-01T02:03:35;4.63;;;3.20;;
10653;SDS011;5375;51.250;6.776;2023-03-01T02:06:11;4.87;;;3.10;;
10653;SDS011;5375;51.250;6.776;2023-03-01T02:08:43;3.93;;;2.97;;
10653;SDS011;5375;51.250;6.776;2023-03-01T02:11:10;3.97;;;3.07;;
10653;SDS011;5375;51.250;6.776;2023-03-01T02:13:39;4.70;;;2.77;;
10653;SDS011;5375;51.250;6.776;2023-03-01T02:16:09;4.60;;;2.67;;
10653;SDS011;5375;51.250;6.776;2023-03-01T02:18:38;6.27;;;2.97;;
10653;SDS011;5375;51.250;6.776;2023-03-01T02:21:26;6.43;;;2.60;;
10653;SDS011;5375;51.250;6.776;2023-03-01T02:23:54;3.70;;;2.50;;
10653;SDS011;5375;51.250;6.776;2023-03-01T02:26:29;4.03;;;3.00;;
10653;SDS011;5375;51.250;6.776;2023-03-01T02:29:06;3.67;;;2.70;;
10653;SDS011;5375;51.250;6.776;2023-03-01T02:31:32;5.53;;;3.13;;
10653;SDS011;5375;51.250;6.776;2023-03-01T02:34:09;4.03;;;2.80;;
10653;SDS011;5375;51.250;6.776;2023-03-01T02:36:42;5.70;;;2.90;;
10653;SDS011;5375;51.250;6.776;2023-03-01T02:39:14;4.40;;;3.00;;
10653;SDS011;5375;51.250;6.776;2023-03-01T02:41:48;5.13;;;3.10;;
10653;SDS011;5375;51.250;6.776;2023-03-01T02:44:16;6.33;;;2.90;;
10653;SDS011;5375;51.250;6.776;2023-03-01T02:46:44;4.23;;;3.03;;
10653;SDS011;5375;51.250;6.776;2023-03-01T02:57:18;4.20;;;3.17;;
10653;SDS011;5375;51.250;6.776;2023-03-01T02:59:44;5.57;;;2.67;;
10653;SDS011;5375;51.250;6.776;2023-03-01T03:02:31;2.80;;;2.40;;
10653;SDS011;5375;51.250;6.776;2023-03-01T03:05:06;4.80;;;2.50;;
10653;SDS011;5375;51.250;6.776;2023-03-01T03:07:41;4.60;;;3.20;;
10653;SDS011;5375;51.250;6.776;2023-03-01T03:10:09;4.50;;;3.00;;
10653;SDS011;5375;51.250;6.776;2023-03-01T03:12:40;3.73;;;2.87;;
10653;SDS011;5375;51.250;6.776;2023-03-01T03:15:07;4.27;;;2.73;;
10653;SDS011;5375;51.250;6.776;2023-03-01T03:17:35;4.43;;;2.67;;
10653;SDS011;5375;51.250;6.776;2023-03-01T03:20:03;4.70;;;3.10;;
10653;SDS011;5375;51.250;6.776;2023-03-01T03:22:36;4.13;;;3.10;;
10653;SDS011;5375;51.250;6.776;2023-03-01T03:25:04;5.97;;;3.20;;
10653;SDS011;5375;51.250;6.776;2023-03-01T03:27:31;3.93;;;2.90;;
10653;SDS011;5375;51.250;6.776;2023-03-01T03:29:57;3.90;;;2.57;;
10653;SDS011;5375;51.250;6.776;2023-03-01T03:32:22;3.77;;;2.70;;
10653;SDS011;5375;51.250;6.776;2023-03-01T03:34:48;15.83;;;4.50;;
10653;SDS011;5375;51.250;6.776;2023-03-01T03:37:14;7.00;;;3.03;;
10653;SDS011;5375;51.250;6.776;2023-03-01T03:39:59;8.90;;;2.63;;
10653;SDS011;5375;51.250;6.776;2023-03-01T03:42:25;5.13;;;3.30;;
10653;SDS011;5375;51.250;6.776;2023-03-01T03:44:51;4.50;;;3.00;;
10653;SDS011;5375;51.250;6.776;2023-03-01T03:47:17;4.03;;;2.60;;
10653;SDS011;5375;51.250;6.776;2023-03-01T03:49:42;5.03;;;2.77;;
10653;SDS011;5375;51.250;6.776;2023-03-01T03:52:08;3.97;;;2.57;;
10653;SDS011;5375;51.250;6.776;2023-03-01T03:54:39;4.30;;;2.73;;
10653;SDS011;5375;51.250;6.776;2023-03-01T03:57:05;5.70;;;2.90;;
10653;SDS011;5375;51.250;6.776;2023-03-01T03:59:31;4.17;;;2.60;;
10653;SDS011;5375;51.250;6.776;2023-03-01T04:01:57;6.07;;;2.63;;
10653;SDS011;5375;51.250;6.776;2023-03-01T04:04:23;5.20;;;2.87;;
10653;SDS011;5375;51.250;6.776;2023-03-01T04:06:48;4.73;;;2.60;;
10653;SDS011;5375;51.250;6.776;2023-03-01T04:09:14;5.67;;;3.07;;
10653;SDS011;5375;51.250;6.776;2023-03-01T04:11:40;3.57;;;2.57;;
10653;SDS011;5375;51.250;6.776;2023-03-01T04:14:06;3.70;;;2.50;;
10653;SDS011;5375;51.250;6.776;2023-03-01T04:16:31;5.03;;;3.00;;
10653;SDS011;5375;51.250;6.776;2023-03-01T04:18:57;4.20;;;3.00;;
10653;SDS011;5375;51.250;6.776;2023-03-01T04:21:24;3.70;;;2.50;;
10653;SDS011;5375;51.250;6.776;2023-03-01T04:23:50;5.77;;;2.70;;
10653;SDS011;5375;51.250;6.776;2023-03-01T04:26:20;4.00;;;2.53;;
10653;SDS011;5375;51.250;6.776;2023-03-01T04:28:45;3.60;;;2.60;;
10653;SDS011;5375;51.250;6.776;2023-03-01T04:31:14;3.63;;;2.53;;
10653;SDS011;5375;51.250;6.776;2023-03-01T04:33:46;3.60;;;2.50;;
10653;SDS011;5375;51.250;6.776;2023-03-01T04:36:14;5.17;;;2.63;;
10653;SDS011;5375;51.250;6.776;2023-03-01T04:38:40;3.77;;;2.53;;
10653;SDS011;5375;51.250;6.776;2023-03-01T04:41:08;3.50;;;2.23;;
10653;SDS011;5375;51.250;6.776;2023-03-01T04:43:34;4.90;;;2.87;;
10653;SDS011;5375;51.250;6.776;2023-03-01T04:46:01;2.83;;;2.40;;
10653;SDS011;5375;51.250;6.776;2023-03-01T04:48:28;3.47;;;2.50;;
10653;SDS011;5375;51.250;6.776;2023-03-01T04:50:54;3.90;;;2.63;;
10653;SDS011;5375;51.250;6.776;2023-03-01T04:53:20;3.20;;;2.50;;
10653;SDS011;5375;51.250;6.776;2023-03-01T04:55:45;3.17;;;2.30;;
10653;SDS011;5375;51.250;6.776;2023-03-01T04:58:11;5.13;;;2.90;;
10653;SDS011;5375;51.250;6.776;2023-03-01T05:00:37;3.33;;;2.30;;
10653;SDS011;5375;51.250;6.776;2023-03-01T05:03:02;4.60;;;2.40;;
10653;SDS011;5375;51.250;6.776;2023-03-01T05:05:30;3.47;;;2.50;;
10653;SDS011;5375;51.250;6.776;2023-03-01T05:08:02;4.37;;;2.63;;
10653;SDS011;5375;51.250;6.776;2023-03-01T05:10:31;5.80;;;2.70;;
10653;SDS011;5375;51.250;6.776;2023-03-01T05:13:00;2.93;;;2.30;;
10653;SDS011;5375;51.250;6.776;2023-03-01T05:15:28;3.80;;;2.40;;
10653;SDS011;5375;51.250;6.776;2023-03-01T05:17:56;15.23;;;2.50;;
10653;SDS011;5375;51.250;6.776;2023-03-01T05:20:24;6.33;;;2.80;;
10653;SDS011;5375;51.250;6.776;2023-03-01T05:22:51;5.33;;;2.27;;
10653;SDS011;5375;51.250;6.776;2023-03-01T05:25:17;5.53;;;2.90;;
10653;SDS011;5375;51.250;6.776;2023-03-01T05:27:43;3.30;;;2.23;;
10653;SDS011;5375;51.250;6.776;2023-03-01T05:30:10;4.23;;;2.50;;
10653;SDS011;5375;51.250;6.776;2023-03-01T05:32:42;6.83;;;2.37;;
10653;SDS011;5375;51.250;6.776;2023-03-01T05:35:13;6.83;;;2.30;;
10653;SDS011;5375;51.250;6.776;2023-03-01T05:37:41;10.70;;;2.83;;
10653;SDS011;5375;51.250;6.776;2023-03-01T05:40:09;4.50;;;2.23;;
10653;SDS011;5375;51.250;6.776;2023-03-01T05:42:48;3.80;;;2.30;;
10653;SDS011;5375;51.250;6.776;2023-03-01T05:45:15;5.20;;;2.63;;
10653;SDS011;5375;51.250;6.776;2023-03-01T05:47:42;6.40;;;2.37;;
10653;SDS011;5375;51.250;6.776;2023-03-01T05:50:13;3.50;;;2.20;;
10653;SDS011;5375;51.250;6.776;2023-03-01T05:52:39;2.80;;;2.30;;
10653;SDS011;5375;51.250;6.776;2023-03-01T05:55:05;4.00;;;2.13;;
10653;SDS011;5375;51.250;6.776;2023-03-01T05:57:31;3.97;;;2.40;;
10653;SDS011;5375;51.250;6.776;2023-03-01T05:59:57;3.93;;;2.30;;
10653;SDS011;5375;51.250;6.776;2023-03-01T06:02:22;4.17;;;2.27;;
10653;SDS011;5375;51.250;6.776;2023-03-01T06:04:48;3.10;;;2.23;;
10653;SDS011;5375;51.250;6.776;2023-03-01T06:07:14;3.40;;;2.17;;
10653;SDS011;5375;51.250;6.776;2023-03-01T06:09:39;3.97;;;2.40;;
10653;SDS011;5375;51.250;6.776;2023-03-01T06:12:05;3.70;;;2.40;;
10653;SDS011;5375;51.250;6.776;2023-03-01T06:14:31;3.07;;;2.27;;
10653;SDS011;5375;51.250;6.776;2023-03-01T06:16:57;2.90;;;2.13;;
10653;SDS011;5375;51.250;6.776;2023-03-01T06:19:23;4.27;;;2.13;;
10653;SDS011;5375;51.250;6.776;2023-03-01T06:21:48;4.30;;;2.23;;
10653;SDS011;5375;51.250;6.776;2023-03-01T06:24:14;3.40;;;2.30;;
10653;SDS011;5375;51.250;6.776;2023-03-01T06:26:40;4.33;;;2.73;;
10653;SDS011;5375;51.250;6.776;2023-03-01T06:29:05;4.30;;;2.20;;
10653;SDS011;5375;51.250;6.776;2023-03-01T06:31:32;3.13;;;2.50;;
10653;SDS011;5375;51.250;6.776;2023-03-01T06:33:58;4.50;;;2.53;;
10653;SDS011;5375;51.250;6.776;2023-03-01T06:36:23;4.13;;;2.20;;
10653;SDS011;5375;51.250;6.776;2023-03-01T06:38:49;4.23;;;2.30;;
10653;SDS011;5375;51.250;6.776;2023-03-01T06:41:15;3.30;;;2.33;;
10653;SDS011;5375;51.250;6.776;2023-03-01T06:43:40;4.00;;;2.40;;
10653;SDS011;5375;51.250;6.776;2023-03-01T06:46:06;4.07;;;2.50;;
10653;SDS011;5375;51.250;6.776;2023-03-01T06:48:32;3.37;;;2.10;;
10653;SDS011;5375;51.250;6.776;2023-03-01T06:50:59;4.20;;;2.30;;
10653;SDS011;5375;51.250;6.776;2023-03-01T06:53:28;2.70;;;2.13;;
10653;SDS011;5375;51.250;6.776;2023-03-01T06:55:57;3.37;;;2.40;;
10653;SDS011;5375;51.250;6.776;2023-03-01T06:58:25;4.10;;;2.23;;
10653;SDS011;5375;51.250;6.776;2023-03-01T07:00:51;3.83;;;2.37;;
10653;SDS011;5375;51.250;6.776;2023-03-01T07:03:17;3.20;;;2.23;;
10653;SDS011;5375;51.250;6.776;2023-03-01T07:05:43;2.47;;;2.10;;
10653;SDS011;5375;51.250;6.776;2023-03-01T07:08:09;3.37;;;2.07;;
10653;SDS011;5375;51.250;6.776;2023-03-01T07:10:35;4.30;;;2.57;;
10653;SDS011;5375;51.250;6.776;2023-03-01T07:13:01;4.93;;;2.80;;
10653;SDS011;5375;51.250;6.776;2023-03-01T07:15:27;4.17;;;2.27;;
10653;SDS011;5375;51.250;6.776;2023-03-01T07:17:53;6.17;;;2.53;;
10653;SDS011;5375;51.250;6.776;2023-03-01T07:20:19;3.93;;;2.33;;
10653;SDS011;5375;51.250;6.776;2023-03-01T07:22:49;3.77;;;2.40;;
10653;SDS011;5375;51.250;6.776;2023-03-01T07:25:15;4.63;;;2.40;;
10653;SDS011;5375;51.250;6.776;2023-03-01T07:27:41;4.23;;;2.47;;
10653;SDS011;5375;51.250;6.776;2023-03-01T07:30:06;3.83;;;2.00;;
10653;SDS011;5375;51.250;6.776;2023-03-01T07:32:33;4.63;;;2.20;;
10653;SDS011;5375;51.250;6.776;2023-03-01T07:34:59;2.30;;;1.87;;
10653;SDS011;5375;51.250;6.776;2023-03-01T07:37:24;3.63;;;2.40;;
10653;SDS011;5375;51.250;6.776;2023-03-01T07:39:50;4.17;;;2.00;;
10653;SDS011;5375;51.250;6.776;2023-03-01T07:42:15;3.20;;;2.20;;
10653;SDS011;5375;51.250;6.776;2023-03-01T07:44:41;6.30;;;2.20;;
10653;SDS011;5375;51.250;6.776;2023-03-01T07:47:07;6.13;;;2.73;;
10653;SDS011;5375;51.250;6.776;2023-03-01T07:49:32;3.13;;;2.40;;
10653;SDS011;5375;51.250;6.776;2023-03-01T07:51:58;2.70;;;2.17;;
10653;SDS011;5375;51.250;6.776;2023-03-01T07:54:24;5.13;;;2.30;;
10653;SDS011;5375;51.250;6.776;2023-03-01T07:56:51;4.10;;;2.00;;
10653;SDS011;5375;51.250;6.776;2023-03-01T07:59:17;4.20;;;1.90;;
10653;SDS011;5375;51.250;6.776;2023-03-01T08:01:42;3.23;;;2.50;;
10653;SDS011;5375;51.250;6.776;2023-03-01T08:04:08;2.57;;;2.03;;
10653;SDS011;5375;51.250;6.776;2023-03-01T08:06:35;2.47;;;1.97;;
10653;SDS011;5375;51.250;6.776;2023-03-01T08:09:01;3.50;;;2.57;;
10653;SDS011;5375;51.250;6.776;2023-03-01T08:11:27;7.00;;;2.47;;
10653;SDS011;5375;51.250;6.776;2023-03-01T08:13:53;2.67;;;2.07;;
10653;SDS011;5375;51.250;6.776;2023-03-01T08:16:19;2.83;;;2.20;;
10653;SDS011;5375;51.250;6.776;2023-03-01T08:18:45;3.97;;;2.50;;
10653;SDS011;5375;51.250;6.776;2023-03-01T08:21:12;3.77;;;2.47;;
10653;SDS011;5375;51.250;6.776;2023-03-01T08:23:39;6.13;;;2.53;;
10653;SDS011;5375;51.250;6.776;2023-03-01T08:26:06;4.20;;;2.20;;
10653;SDS011;5375;51.250;6.776;2023-03-01T08:28:34;4.03;;;2.37;;
10653;SDS011;5375;51.250;6.776;2023-03-01T08:31:01;4.23;;;2.47;;
10653;SDS011;5375;51.250;6.776;2023-03-01T08:33:27;6.93;;;2.40;;
10653;SDS011;5375;51.250;6.776;2023-03-01T08:35:52;3.97;;;2.17;;
10653;SDS011;5375;51.250;6.776;2023-03-01T08:38:28;3.63;;;2.50;;
10653;SDS011;5375;51.250;6.776;2023-03-01T08:40:53;2.73;;;2.20;;
10653;SDS011;5375;51.250;6.776;2023-03-01T08:43:19;3.30;;;2.40;;
10653;SDS011;5375;51.250;6.776;2023-03-01T08:45:45;3.60;;;2.07;;
10653;SDS011;5375;51.250;6.776;2023-03-01T08:48:13;2.87;;;2.10;;
10653;SDS011;5375;51.250;6.776;2023-03-01T08:50:38;3.27;;;2.10;;
10653;SDS011;5375;51.250;6.776;2023-03-01T08:53:04;3.67;;;2.23;;
10653;SDS011;5375;51.250;6.776;2023-03-01T08:55:29;5.17;;;2.27;;
10653;SDS011;5375;51.250;6.776;2023-03-01T08:57:56;3.13;;;2.17;;
10653;SDS011;5375;51.250;6.776;2023-03-01T09:00:23;3.37;;;2.20;;
10653;SDS011;5375;51.250;6.776;2023-03-01T09:02:50;3.87;;;2.30;;
10653;SDS011;5375;51.250;6.776;2023-03-01T09:05:15;2.70;;;2.00;;
10653;SDS011;5375;51.250;6.776;2023-03-01T09:07:41;3.67;;;1.97;;
10653;SDS011;5375;51.250;6.776;2023-03-01T09:10:07;3.70;;;2.30;;
10653;SDS011;5375;51.250;6.776;2023-03-01T09:12:33;2.77;;;2.20;;
10653;SDS011;5375;51.250;6.776;2023-03-01T09:14:59;4.20;;;2.37;;
10653;SDS011;5375;51.250;6.776;2023-03-01T09:17:25;3.07;;;2.17;;
10653;SDS011;5375;51.250;6.776;2023-03-01T09:19:50;3.23;;;2.37;;
10653;SDS011;5375;51.250;6.776;2023-03-01T09:22:16;5.23;;;2.30;;
10653;SDS011;5375;51.250;6.776;2023-03-01T09:24:41;4.63;;;2.50;;
10653;SDS011;5375;51.250;6.776;2023-03-01T09:27:07;3.37;;;2.13;;
10653;SDS011;5375;51.250;6.776;2023-03-01T09:29:35;2.80;;;2.00;;
10653;SDS011;5375;51.250;6.776;2023-03-01T09:32:01;4.00;;;2.30;;
10653;SDS011;5375;51.250;6.776;2023-03-01T09:34:27;3.23;;;2.20;;
10653;SDS011;5375;51.250;6.776;2023-03-01T09:36:53;2.97;;;2.17;;
10653;SDS011;5375;51.250;6.776;2023-03-01T09:39:19;3.27;;;2.10;;
10653;SDS011;5375;51.250;6.776;2023-03-01T09:41:46;3.77;;;2.53;;
10653;SDS011;5375;51.250;6.776;2023-03-01T09:47:01;4.07;;;2.30;;
10653;SDS011;5375;51.250;6.776;2023-03-01T09:49:28;4.50;;;2.50;;
10653;SDS011;5375;51.250;6.776;2023-03-01T09:54:30;4.50;;;2.37;;
10653;SDS011;5375;51.250;6.776;2023-03-01T09:57:06;3.73;;;2.27;;
10653;SDS011;5375;51.250;6.776;2023-03-01T10:05:12;2.50;;;2.00;;
10653;SDS011;5375;51.250;6.776;2023-03-01T10:08:02;4.73;;;1.90;;
10653;SDS011;5375;51.250;6.776;2023-03-01T10:10:36;2.83;;;1.73;;
10653;SDS011;5375;51.250;6.776;2023-03-01T10:13:10;3.10;;;2.10;;
10653;SDS011;5375;51.250;6.776;2023-03-01T10:15:38;2.67;;;1.90;;
10653;SDS011;5375;51.250;6.776;2023-03-01T10:18:14;2.57;;;2.00;;
10653;SDS011;5375;51.250;6.776;2023-03-01T10:23:22;4.17;;;2.00;;
10653;SDS011;5375;51.250;6.776;2023-03-01T10:28:44;2.53;;;1.90;;
10653;SDS011;5375;51.250;6.776;2023-03-01T10:31:14;4.00;;;2.30;;
10653;SDS011;5375;51.250;6.776;2023-03-01T10:33:43;2.83;;;2.00;;
10653;SDS011;5375;51.250;6.776;2023-03-01T10:36:09;2.03;;;1.70;;
10653;SDS011;5375;51.250;6.776;2023-03-01T10:38:48;3.27;;;2.17;;
10653;SDS011;5375;51.250;6.776;2023-03-01T10:41:19;3.40;;;2.00;;
10653;SDS011;5375;51.250;6.776;2023-03-01T10:43:50;2.67;;;2.07;;
10653;SDS011;5375;51.250;6.776;2023-03-01T10:46:36;5.50;;;2.20;;
10653;SDS011;5375;51.250;6.776;2023-03-01T10:51:56;3.80;;;2.13;;
10653;SDS011;5375;51.250;6.776;2023-03-01T10:54:43;2.47;;;1.93;;
10653;SDS011;5375;51.250;6.776;2023-03-01T10:57:24;2.13;;;1.87;;
10653;SDS011;5375;51.250;6.776;2023-03-01T11:00:05;2.90;;;2.00;;
10653;SDS011;5375;51.250;6.776;2023-03-01T11:02:48;2.80;;;2.30;;
10653;SDS011;5375;51.250;6.776;2023-03-01T11:05:17;2.33;;;1.80;;
10653;SDS011;5375;51.250;6.776;2023-03-01T11:07:49;2.33;;;1.80;;
10653;SDS011;5375;51.250;6.776;2023-03-01T11:12:51;3.47;;;2.10;;
10653;SDS011;5375;51.250;6.776;2023-03-01T11:15:36;2.57;;;1.90;;
10653;SDS011;5375;51.250;6.776;2023-03-01T11:18:02;2.53;;;1.77;;
10653;SDS011;5375;51.250;6.776;2023-03-01T11:20:32;3.70;;;2.10;;
10653;SDS011;5375;51.250;6.776;2023-03-01T11:23:10;2.37;;;1.80;;
10653;SDS011;5375;51.250;6.776;2023-03-01T11:25:58;1.97;;;1.70;;
10653;SDS011;5375;51.250;6.776;2023-03-01T11:28:29;3.37;;;2.13;;
10653;SDS011;5375;51.250;6.776;2023-03-01T11:31:08;2.40;;;2.00;;
10653;SDS011;5375;51.250;6.776;2023-03-01T11:36:16;3.17;;;1.97;;
10653;SDS011;5375;51.250;6.776;2023-03-01T11:42:05;3.13;;;2.03;;
10653;SDS011;5375;51.250;6.776;2023-03-01T11:44:40;4.10;;;1.80;;
10653;SDS011;5375;51.250;6.776;2023-03-01T11:47:14;3.20;;;2.10;;
10653;SDS011;5375;51.250;6.776;2023-03-01T11:50:46;2.70;;;1.90;;
10653;SDS011;5375;51.250;6.776;2023-03-01T11:53:05;3.67;;;1.80;;
10653;SDS011;5375;51.250;6.776;2023-03-01T12:08:16;7.93;;;1.80;;
10653;SDS011;5375;51.250;6.776;2023-03-01T12:16:22;3.73;;;1.90;;
10653;SDS011;5375;51.250;6.776;2023-03-01T12:19:09;4.60;;;1.97;;
10653;SDS011;5375;51.250;6.776;2023-03-01T12:28:02;2.83;;;1.70;;
10653;SDS011;5375;51.250;6.776;2023-03-01T12:39:44;2.17;;;1.60;;
10653;SDS011;5375;51.250;6.776;2023-03-01T12:50:22;2.90;;;2.00;;
10653;SDS011;5375;51.250;6.776;2023-03-01T12:52:57;5.33;;;1.73;;
10653;SDS011;5375;51.250;6.776;2023-03-01T12:58:19;3.20;;;1.80;;
10653;SDS011;5375;51.250;6.776;2023-03-01T13:01:08;2.80;;;1.40;;
10653;SDS011;5375;51.250;6.776;2023-03-01T13:06:20;2.47;;;1.77;;
10653;SDS011;5375;51.250;6.776;2023-03-01T13:11:48;2.97;;;1.60;;
10653;SDS011;5375;51.250;6.776;2023-03-01T13:16:45;3.27;;;1.70;;
10653;SDS011;5375;51.250;6.776;2023-03-01T13:21:43;3.63;;;2.10;;
10653;SDS011;5375;51.250;6.776;2023-03-01T13:27:08;2.60;;;1.53;;
10653;SDS011;5375;51.250;6.776;2023-03-01T13:29:55;2.23;;;1.70;;
10653;SDS011;5375;51.250;6.776;2023-03-01T13:32:29;3.30;;;1.77;;
10653;SDS011;5375;51.250;6.776;2023-03-01T13:37:44;2.87;;;1.70;;
10653;SDS011;5375;51.250;6.776;2023-03-01T13:42:53;2.00;;;1.57;;
10653;SDS011;5375;51.250;6.776;2023-03-01T13:48:10;3.33;;;1.97;;
10653;SDS011;5375;51.250;6.776;2023-03-01T13:50:48;2.93;;;1.80;;
10653;SDS011;5375;51.250;6.776;2023-03-01T13:53:18;2.87;;;1.80;;
10653;SDS011;5375;51.250;6.776;2023-03-01T13:55:48;1.73;;;1.50;;
10653;SDS011;5375;51.250;6.776;2023-03-01T13:58:18;2.50;;;1.83;;
10653;SDS011;5375;51.250;6.776;2023-03-01T14:03:30;2.80;;;1.60;;
10653;SDS011;5375;51.250;6.776;2023-03-01T14:08:40;2.40;;;1.70;;
10653;SDS011;5375;51.250;6.776;2023-03-01T14:14:06;2.30;;;1.53;;
10653;SDS011;5375;51.250;6.776;2023-03-01T14:19:19;2.13;;;1.53;;
10653;SDS011;5375;51.250;6.776;2023-03-01T14:24:48;2.27;;;1.67;;
10653;SDS011;5375;51.250;6.776;2023-03-01T14:27:19;2.20;;;1.60;;
10653;SDS011;5375;51.250;6.776;2023-03-01T14:29:54;3.37;;;1.70;;
10653;SDS011;5375;51.250;6.776;2023-03-01T14:32:22;3.67;;;1.60;;
10653;SDS011;5375;51.250;6.776;2023-03-01T14:34:50;2.30;;;1.90;;
10653;SDS011;5375;51.250;6.776;2023-03-01T14:39:53;2.90;;;1.80;;
10653;SDS011;5375;51.250;6.776;2023-03-01T14:42:20;3.97;;;1.97;;
10653;SDS011;5375;51.250;6.776;2023-03-01T14:44:49;2.70;;;1.70;;
10653;SDS011;5375;51.250;6.776;2023-03-01T14:49:53;2.60;;;1.80;;
10653;SDS011;5375;51.250;6.776;2023-03-01T14:52:37;2.17;;;1.70;;
10653;SDS011;5375;51.250;6.776;2023-03-01T14:55:07;3.03;;;1.73;;
10653;SDS011;5375;51.250;6.776;2023-03-01T14:57:46;2.87;;;1.57;;
10653;SDS011;5375;51.250;6.776;2023-03-01T15:00:24;2.83;;;2.07;;
10653;SDS011;5375;51.250;6.776;2023-03-01T15:02:53;2.10;;;1.60;;
10653;SDS011;5375;51.250;6.776;2023-03-01T15:05:39;2.00;;;1.50;;
10653;SDS011;5375;51.250;6.776;2023-03-01T15:08:06;2.50;;;1.63;;
10653;SDS011;5375;51.250;6.776;2023-03-01T15:10:54;1.73;;;1.40;;
10653;SDS011;5375;51.250;6.776;2023-03-01T15:13:26;2.07;;;1.53;;
10653;SDS011;5375;51.250;6.776;2023-03-01T15:18:35;1.73;;;1.50;;
10653;SDS011;5375;51.250;6.776;2023-03-01T15:21:05;3.07;;;1.67;;
10653;SDS011;5375;51.250;6.776;2023-03-01T15:23:40;3.07;;;1.60;;
10653;SDS011;5375;51.250;6.776;2023-03-01T15:26:16;1.90;;;1.60;;
10653;SDS011;5375;51.250;6.776;2023-03-01T15:28:52;3.53;;;1.53;;
10653;SDS011;5375;51.250;6.776;2023-03-01T15:31:24;4.33;;;1.50;;
10653;SDS011;5375;51.250;6.776;2023-03-01T15:36:52;1.40;;;1.30;;
10653;SDS011;5375;51.250;6.776;2023-03-01T15:39:27;2.27;;;1.53;;
10653;SDS011;5375;51.250;6.776;2023-03-01T15:42:12;4.17;;;1.60;;
10653;SDS011;5375;51.250;6.776;2023-03-01T15:45:11;2.33;;;1.58;;
10653;SDS011;5375;51.250;6.776;2023-03-01T15:47:41;1.70;;;1.30;;
10653;SDS011;5375;51.250;6.776;2023-03-01T15:53:14;3.70;;;1.60;;
10653;SDS011;5375;51.250;6.776;2023-03-01T15:55:40;3.87;;;1.60;;
10653;SDS011;5375;51.250;6.776;2023-03-01T15:58:10;1.77;;;1.40;;
10653;SDS011;5375;51.250;6.776;2023-03-01T16:00:39;2.80;;;1.63;;
10653;SDS011;5375;51.250;6.776;2023-03-01T16:03:05;5.87;;;1.93;;
10653;SDS011;5375;51.250;6.776;2023-03-01T16:05:33;1.90;;;1.40;;
10653;SDS011;5375;51.250;6.776;2023-03-01T16:08:00;3.50;;;1.67;;
10653;SDS011;5375;51.250;6.776;2023-03-01T16:10:25;3.33;;;1.43;;
10653;SDS011;5375;51.250;6.776;2023-03-01T16:12:52;3.63;;;1.80;;
10653;SDS011;5375;51.250;6.776;2023-03-01T16:17:45;1.93;;;1.23;;
10653;SDS011;5375;51.250;6.776;2023-03-01T16:20:11;2.23;;;1.43;;
10653;SDS011;5375;51.250;6.776;2023-03-01T16:22:37;2.87;;;1.80;;
10653;SDS011;5375;51.250;6.776;2023-03-01T16:25:02;1.70;;;1.50;;
10653;SDS011;5375;51.250;6.776;2023-03-01T16:27:28;2.20;;;1.40;;
10653;SDS011;5375;51.250;6.776;2023-03-01T16:29:54;1.97;;;1.50;;
10653;SDS011;5375;51.250;6.776;2023-03-01T16:32:20;1.80;;;1.27;;
10653;SDS011;5375;51.250;6.776;2023-03-01T16:34:45;2.93;;;1.50;;
10653;SDS011;5375;51.250;6.776;2023-03-01T16:37:14;2.27;;;1.80;;
10653;SDS011;5375;51.250;6.776;2023-03-01T16:39:40;2.33;;;1.50;;
10653;SDS011;5375;51.250;6.776;2023-03-01T16:42:06;2.33;;;1.50;;
10653;SDS011;5375;51.250;6.776;2023-03-01T16:44:32;2.43;;;1.50;;
10653;SDS011;5375;51.250;6.776;2023-03-01T16:46:58;4.37;;;1.57;;
10653;SDS011;5375;51.250;6.776;2023-03-01T16:49:23;1.80;;;1.30;;
10653;SDS011;5375;51.250;6.776;2023-03-01T16:51:49;1.70;;;1.40;;
10653;SDS011;5375;51.250;6.776;2023-03-01T16:54:15;2.67;;;1.63;;
10653;SDS011;5375;51.250;6.776;2023-03-01T16:56:40;2.30;;;1.70;;
10653;SDS011;5375;51.250;6.776;2023-03-01T16:59:06;1.50;;;1.20;;
10653;SDS011;5375;51.250;6.776;2023-03-01T17:01:32;1.53;;;1.30;;
10653;SDS011;5375;51.250;6.776;2023-03-01T17:04:02;1.90;;;1.40;;
10653;SDS011;5375;51.250;6.776;2023-03-01T17:06:28;1.80;;;1.40;;
10653;SDS011;5375;51.250;6.776;2023-03-01T17:08:54;3.00;;;1.50;;
10653;SDS011;5375;51.250;6.776;2023-03-01T17:11:22;2.60;;;1.73;;
10653;SDS011;5375;51.250;6.776;2023-03-01T17:13:47;1.30;;;1.20;;
10653;SDS011;5375;51.250;6.776;2023-03-01T17:16:14;1.93;;;1.33;;
10653;SDS011;5375;51.250;6.776;2023-03-01T17:18:43;1.80;;;1.40;;
10653;SDS011;5375;51.250;6.776;2023-03-01T17:21:08;2.30;;;1.63;;
10653;SDS011;5375;51.250;6.776;2023-03-01T17:23:35;2.13;;;1.53;;
10653;SDS011;5375;51.250;6.776;2023-03-01T17:26:03;2.47;;;1.43;;